sensor_id;sensor_type;location;lat;lon;timestamp;P1;durP1;ratioP1;P2;durP2;ratioP2
65009;SDS011;51556;50.002;22.014;2023-11-21T00:01:47;3.10;;;1.90;;
65009;SDS011;51556;50.002;22.014;2023-11-21T00:04:13;5.00;;;2.10;;
65009;SDS011;51556;50.002;22.014;2023-11-21T00:06:40;2.50;;;1.70;;
65009;SDS011;51556;50.002;22.014;2023-11-21T00:09:06;2.90;;;1.80;;
65009;SDS011;51556;50.002;22.014;2023-11-21T00:11:33;3.00;;;2.10;;
65009;SDS011;51556;50.002;22.014;2023-11-21T00:13:59;4.00;;;2.40;;
65009;SDS011;51556;50.002;22.014;2023-11-21T00:16:24;4.30;;;2.70;;
65009;SDS011;51556;50.002;22.014;2023-11-21T00:18:50;4.00;;;2.10;;
65009;SDS011;51556;50.002;22.014;2023-11-21T00:21:16;5.00;;;2.70;;
65009;SDS011;51556;50.002;22.014;2023-11-21T00:23:41;5.20;;;3.00;;
65009;SDS011;51556;50.002;22.014;2023-11-21T00:26:08;3.20;;;2.00;;
65009;SDS011;51556;50.002;22.014;2023-11-21T00:28:33;2.40;;;1.70;;
65009;SDS011;51556;50.002;22.014;2023-11-21T00:30:58;3.90;;;2.40;;
65009;SDS011;51556;50.002;22.014;2023-11-21T00:33:24;4.70;;;2.40;;
65009;SDS011;51556;50.002;22.014;2023-11-21T00:35:50;2.70;;;1.90;;
65009;SDS011;51556;50.002;22.014;2023-11-21T00:38:15;4.00;;;1.90;;
65009;SDS011;51556;50.002;22.014;2023-11-21T00:40:45;3.60;;;2.30;;
65009;SDS011;51556;50.002;22.014;2023-11-21T00:43:11;3.60;;;2.20;;
65009;SDS011;51556;50.002;22.014;2023-11-21T00:45:36;5.60;;;2.70;;
65009;SDS011;51556;50.002;22.014;2023-11-21T00:48:02;5.00;;;2.50;;
65009;SDS011;51556;50.002;22.014;2023-11-21T00:50:30;4.70;;;2.50;;
65009;SDS011;51556;50.002;22.014;2023-11-21T00:52:55;5.50;;;2.60;;
65009;SDS011;51556;50.002;22.014;2023-11-21T00:55:21;5.30;;;2.80;;
65009;SDS011;51556;50.002;22.014;2023-11-21T00:57:46;5.90;;;3.20;;
65009;SDS011;51556;50.002;22.014;2023-11-21T01:00:12;4.60;;;2.30;;
65009;SDS011;51556;50.002;22.014;2023-11-21T01:02:45;4.30;;;2.60;;
65009;SDS011;51556;50.002;22.014;2023-11-21T01:05:11;3.80;;;2.30;;
65009;SDS011;51556;50.002;22.014;2023-11-21T01:07:37;4.90;;;2.50;;
65009;SDS011;51556;50.002;22.014;2023-11-21T01:10:03;3.80;;;2.70;;
65009;SDS011;51556;50.002;22.014;2023-11-21T01:12:34;5.10;;;2.70;;
65009;SDS011;51556;50.002;22.014;2023-11-21T01:15:00;6.30;;;2.20;;
65009;SDS011;51556;50.002;22.014;2023-11-21T01:17:26;3.30;;;2.50;;
65009;SDS011;51556;50.002;22.014;2023-11-21T01:19:52;5.00;;;2.70;;
65009;SDS011;51556;50.002;22.014;2023-11-21T01:22:17;4.90;;;2.40;;
65009;SDS011;51556;50.002;22.014;2023-11-21T01:24:45;4.90;;;2.50;;
65009;SDS011;51556;50.002;22.014;2023-11-21T01:27:10;3.80;;;2.30;;
65009;SDS011;51556;50.002;22.014;2023-11-21T01:29:36;5.50;;;3.00;;
65009;SDS011;51556;50.002;22.014;2023-11-21T01:32:02;5.80;;;3.10;;
65009;SDS011;51556;50.002;22.014;2023-11-21T01:34:28;4.40;;;2.40;;
65009;SDS011;51556;50.002;22.014;2023-11-21T01:36:54;3.90;;;2.30;;
65009;SDS011;51556;50.002;22.014;2023-11-21T01:39:19;4.40;;;2.00;;
65009;SDS011;51556;50.002;22.014;2023-11-21T01:41:49;4.60;;;2.80;;
65009;SDS011;51556;50.002;22.014;2023-11-21T01:44:16;3.70;;;2.00;;
65009;SDS011;51556;50.002;22.014;2023-11-21T01:46:42;6.00;;;2.50;;
65009;SDS011;51556;50.002;22.014;2023-11-21T01:49:07;3.50;;;2.40;;
65009;SDS011;51556;50.002;22.014;2023-11-21T01:51:38;5.90;;;2.40;;
65009;SDS011;51556;50.002;22.014;2023-11-21T01:54:08;2.80;;;1.80;;
65009;SDS011;51556;50.002;22.014;2023-11-21T01:56:34;3.30;;;1.80;;
65009;SDS011;51556;50.002;22.014;2023-11-21T01:59:00;3.30;;;1.80;;
65009;SDS011;51556;50.002;22.014;2023-11-21T02:01:26;3.20;;;1.90;;
65009;SDS011;51556;50.002;22.014;2023-11-21T02:03:51;2.80;;;1.90;;
65009;SDS011;51556;50.002;22.014;2023-11-21T02:06:17;3.30;;;1.70;;
65009;SDS011;51556;50.002;22.014;2023-11-21T02:08:43;2.50;;;1.80;;
65009;SDS011;51556;50.002;22.014;2023-11-21T02:11:09;2.90;;;1.60;;
65009;SDS011;51556;50.002;22.014;2023-11-21T02:13:38;4.30;;;1.90;;
65009;SDS011;51556;50.002;22.014;2023-11-21T02:16:08;5.90;;;2.50;;
65009;SDS011;51556;50.002;22.014;2023-11-21T02:18:35;2.80;;;2.00;;
65009;SDS011;51556;50.002;22.014;2023-11-21T02:21:01;4.70;;;2.10;;
65009;SDS011;51556;50.002;22.014;2023-11-21T02:23:29;2.80;;;1.80;;
65009;SDS011;51556;50.002;22.014;2023-11-21T02:25:55;2.70;;;1.80;;
65009;SDS011;51556;50.002;22.014;2023-11-21T02:28:20;2.40;;;2.00;;
65009;SDS011;51556;50.002;22.014;2023-11-21T02:30:51;3.10;;;2.00;;
65009;SDS011;51556;50.002;22.014;2023-11-21T02:33:24;4.90;;;2.20;;
65009;SDS011;51556;50.002;22.014;2023-11-21T02:35:49;3.90;;;2.40;;
65009;SDS011;51556;50.002;22.014;2023-11-21T02:38:20;3.30;;;2.00;;
65009;SDS011;51556;50.002;22.014;2023-11-21T02:40:46;2.90;;;1.80;;
65009;SDS011;51556;50.002;22.014;2023-11-21T02:43:11;3.10;;;2.30;;
65009;SDS011;51556;50.002;22.014;2023-11-21T02:45:37;3.70;;;2.50;;
65009;SDS011;51556;50.002;22.014;2023-11-21T02:48:02;3.10;;;2.20;;
65009;SDS011;51556;50.002;22.014;2023-11-21T02:50:29;3.30;;;2.00;;
65009;SDS011;51556;50.002;22.014;2023-11-21T02:52:55;2.90;;;2.10;;
65009;SDS011;51556;50.002;22.014;2023-11-21T02:55:22;3.10;;;2.00;;
65009;SDS011;51556;50.002;22.014;2023-11-21T02:57:50;2.30;;;1.50;;
65009;SDS011;51556;50.002;22.014;2023-11-21T03:00:16;2.80;;;2.20;;
65009;SDS011;51556;50.002;22.014;2023-11-21T03:02:41;2.50;;;1.80;;
65009;SDS011;51556;50.002;22.014;2023-11-21T03:05:08;3.00;;;2.20;;
65009;SDS011;51556;50.002;22.014;2023-11-21T03:07:34;3.50;;;2.10;;
65009;SDS011;51556;50.002;22.014;2023-11-21T03:10:00;2.80;;;2.20;;
65009;SDS011;51556;50.002;22.014;2023-11-21T03:12:25;2.80;;;1.90;;
65009;SDS011;51556;50.002;22.014;2023-11-21T03:14:51;2.60;;;2.10;;
65009;SDS011;51556;50.002;22.014;2023-11-21T03:17:16;4.40;;;2.30;;
65009;SDS011;51556;50.002;22.014;2023-11-21T03:19:42;3.00;;;1.80;;
65009;SDS011;51556;50.002;22.014;2023-11-21T03:22:07;2.90;;;2.00;;
65009;SDS011;51556;50.002;22.014;2023-11-21T03:24:33;2.90;;;2.00;;
65009;SDS011;51556;50.002;22.014;2023-11-21T03:26:59;2.30;;;2.10;;
65009;SDS011;51556;50.002;22.014;2023-11-21T03:29:25;2.10;;;1.70;;
65009;SDS011;51556;50.002;22.014;2023-11-21T03:31:51;2.60;;;1.70;;
65009;SDS011;51556;50.002;22.014;2023-11-21T03:34:19;2.30;;;1.60;;
65009;SDS011;51556;50.002;22.014;2023-11-21T03:36:49;3.20;;;1.90;;
65009;SDS011;51556;50.002;22.014;2023-11-21T03:39:14;2.60;;;2.00;;
65009;SDS011;51556;50.002;22.014;2023-11-21T03:41:39;2.60;;;2.00;;
65009;SDS011;51556;50.002;22.014;2023-11-21T03:44:05;4.30;;;1.90;;
65009;SDS011;51556;50.002;22.014;2023-11-21T03:46:30;2.30;;;1.90;;
65009;SDS011;51556;50.002;22.014;2023-11-21T03:48:55;2.60;;;2.00;;
65009;SDS011;51556;50.002;22.014;2023-11-21T03:51:21;2.90;;;2.00;;
65009;SDS011;51556;50.002;22.014;2023-11-21T03:53:46;2.80;;;2.00;;
65009;SDS011;51556;50.002;22.014;2023-11-21T03:56:13;2.90;;;2.10;;
65009;SDS011;51556;50.002;22.014;2023-11-21T03:58:39;3.60;;;2.20;;
65009;SDS011;51556;50.002;22.014;2023-11-21T04:01:05;2.70;;;2.20;;
65009;SDS011;51556;50.002;22.014;2023-11-21T04:03:30;3.60;;;2.30;;
65009;SDS011;51556;50.002;22.014;2023-11-21T04:05:56;3.20;;;2.00;;
65009;SDS011;51556;50.002;22.014;2023-11-21T04:08:22;5.00;;;2.50;;
65009;SDS011;51556;50.002;22.014;2023-11-21T04:10:47;3.80;;;2.10;;
65009;SDS011;51556;50.002;22.014;2023-11-21T04:13:13;3.90;;;1.90;;
65009;SDS011;51556;50.002;22.014;2023-11-21T04:15:39;3.30;;;1.80;;
65009;SDS011;51556;50.002;22.014;2023-11-21T04:18:04;4.00;;;1.90;;
65009;SDS011;51556;50.002;22.014;2023-11-21T04:20:30;2.50;;;1.80;;
65009;SDS011;51556;50.002;22.014;2023-11-21T04:22:55;1.90;;;1.30;;
65009;SDS011;51556;50.002;22.014;2023-11-21T04:25:21;2.50;;;1.90;;
65009;SDS011;51556;50.002;22.014;2023-11-21T04:27:48;2.10;;;1.60;;
65009;SDS011;51556;50.002;22.014;2023-11-21T04:30:14;4.00;;;2.00;;
65009;SDS011;51556;50.002;22.014;2023-11-21T04:32:40;2.70;;;1.90;;
65009;SDS011;51556;50.002;22.014;2023-11-21T04:35:06;3.30;;;1.90;;
65009;SDS011;51556;50.002;22.014;2023-11-21T04:37:33;2.80;;;1.80;;
65009;SDS011;51556;50.002;22.014;2023-11-21T04:39:59;2.40;;;1.70;;
65009;SDS011;51556;50.002;22.014;2023-11-21T04:42:24;2.90;;;1.60;;
65009;SDS011;51556;50.002;22.014;2023-11-21T04:44:49;2.80;;;1.80;;
65009;SDS011;51556;50.002;22.014;2023-11-21T04:47:15;1.70;;;1.40;;
65009;SDS011;51556;50.002;22.014;2023-11-21T04:49:41;3.20;;;1.90;;
65009;SDS011;51556;50.002;22.014;2023-11-21T04:52:08;3.40;;;1.80;;
65009;SDS011;51556;50.002;22.014;2023-11-21T04:54:35;3.40;;;1.80;;
65009;SDS011;51556;50.002;22.014;2023-11-21T04:57:00;2.10;;;1.60;;
65009;SDS011;51556;50.002;22.014;2023-11-21T04:59:26;1.70;;;1.50;;
65009;SDS011;51556;50.002;22.014;2023-11-21T05:01:52;2.20;;;1.70;;
65009;SDS011;51556;50.002;22.014;2023-11-21T05:04:19;3.70;;;2.00;;
65009;SDS011;51556;50.002;22.014;2023-11-21T05:06:46;2.70;;;1.90;;
65009;SDS011;51556;50.002;22.014;2023-11-21T05:09:13;2.40;;;2.00;;
65009;SDS011;51556;50.002;22.014;2023-11-21T05:11:38;2.00;;;1.70;;
65009;SDS011;51556;50.002;22.014;2023-11-21T05:14:06;2.90;;;2.00;;
65009;SDS011;51556;50.002;22.014;2023-11-21T05:16:31;1.90;;;1.60;;
65009;SDS011;51556;50.002;22.014;2023-11-21T05:18:57;2.40;;;2.00;;
65009;SDS011;51556;50.002;22.014;2023-11-21T05:21:28;2.30;;;1.70;;
65009;SDS011;51556;50.002;22.014;2023-11-21T05:23:57;2.30;;;1.70;;
65009;SDS011;51556;50.002;22.014;2023-11-21T05:26:22;3.50;;;2.00;;
65009;SDS011;51556;50.002;22.014;2023-11-21T05:28:48;2.80;;;2.40;;
65009;SDS011;51556;50.002;22.014;2023-11-21T05:31:13;2.00;;;1.70;;
65009;SDS011;51556;50.002;22.014;2023-11-21T05:33:39;2.50;;;2.20;;
65009;SDS011;51556;50.002;22.014;2023-11-21T05:36:06;3.00;;;2.30;;
65009;SDS011;51556;50.002;22.014;2023-11-21T05:38:33;3.30;;;2.00;;
65009;SDS011;51556;50.002;22.014;2023-11-21T05:40:58;3.20;;;2.50;;
65009;SDS011;51556;50.002;22.014;2023-11-21T05:43:24;3.00;;;2.30;;
65009;SDS011;51556;50.002;22.014;2023-11-21T05:45:49;3.10;;;2.20;;
65009;SDS011;51556;50.002;22.014;2023-11-21T05:48:15;3.10;;;2.40;;
65009;SDS011;51556;50.002;22.014;2023-11-21T05:50:40;2.70;;;2.10;;
65009;SDS011;51556;50.002;22.014;2023-11-21T05:53:06;3.70;;;2.20;;
65009;SDS011;51556;50.002;22.014;2023-11-21T05:55:32;3.30;;;2.10;;
65009;SDS011;51556;50.002;22.014;2023-11-21T05:57:58;4.00;;;2.40;;
65009;SDS011;51556;50.002;22.014;2023-11-21T06:00:23;2.50;;;2.20;;
65009;SDS011;51556;50.002;22.014;2023-11-21T06:02:50;2.90;;;2.30;;
65009;SDS011;51556;50.002;22.014;2023-11-21T06:05:22;3.40;;;2.50;;
65009;SDS011;51556;50.002;22.014;2023-11-21T06:07:49;3.40;;;2.70;;
65009;SDS011;51556;50.002;22.014;2023-11-21T06:10:15;5.70;;;2.30;;
65009;SDS011;51556;50.002;22.014;2023-11-21T06:12:42;4.60;;;2.80;;
65009;SDS011;51556;50.002;22.014;2023-11-21T06:15:08;3.20;;;2.30;;
65009;SDS011;51556;50.002;22.014;2023-11-21T06:17:38;3.60;;;2.90;;
65009;SDS011;51556;50.002;22.014;2023-11-21T06:20:08;3.70;;;2.80;;
65009;SDS011;51556;50.002;22.014;2023-11-21T06:22:38;3.20;;;2.40;;
65009;SDS011;51556;50.002;22.014;2023-11-21T06:25:04;4.20;;;3.10;;
65009;SDS011;51556;50.002;22.014;2023-11-21T06:27:34;3.20;;;2.50;;
65009;SDS011;51556;50.002;22.014;2023-11-21T06:30:02;5.60;;;3.00;;
65009;SDS011;51556;50.002;22.014;2023-11-21T06:32:29;4.20;;;2.70;;
65009;SDS011;51556;50.002;22.014;2023-11-21T06:34:58;5.30;;;2.60;;
65009;SDS011;51556;50.002;22.014;2023-11-21T06:37:27;3.70;;;2.80;;
65009;SDS011;51556;50.002;22.014;2023-11-21T06:39:54;3.90;;;2.90;;
65009;SDS011;51556;50.002;22.014;2023-11-21T06:42:19;4.20;;;2.30;;
65009;SDS011;51556;50.002;22.014;2023-11-21T06:44:45;4.10;;;2.60;;
65009;SDS011;51556;50.002;22.014;2023-11-21T06:47:11;5.00;;;2.70;;
65009;SDS011;51556;50.002;22.014;2023-11-21T06:49:37;4.00;;;2.50;;
65009;SDS011;51556;50.002;22.014;2023-11-21T06:52:04;5.70;;;2.80;;
65009;SDS011;51556;50.002;22.014;2023-11-21T06:54:33;3.10;;;2.10;;
65009;SDS011;51556;50.002;22.014;2023-11-21T06:56:58;5.00;;;2.30;;
65009;SDS011;51556;50.002;22.014;2023-11-21T06:59:24;3.70;;;2.10;;
65009;SDS011;51556;50.002;22.014;2023-11-21T07:01:50;4.00;;;2.50;;
65009;SDS011;51556;50.002;22.014;2023-11-21T07:04:15;3.60;;;2.20;;
65009;SDS011;51556;50.002;22.014;2023-11-21T07:06:41;4.60;;;2.50;;
65009;SDS011;51556;50.002;22.014;2023-11-21T07:09:06;3.60;;;2.20;;
65009;SDS011;51556;50.002;22.014;2023-11-21T07:11:33;3.60;;;2.50;;
65009;SDS011;51556;50.002;22.014;2023-11-21T07:13:59;3.50;;;2.50;;
65009;SDS011;51556;50.002;22.014;2023-11-21T07:16:27;3.10;;;2.10;;
65009;SDS011;51556;50.002;22.014;2023-11-21T07:18:55;4.80;;;2.30;;
65009;SDS011;51556;50.002;22.014;2023-11-21T07:21:20;2.70;;;2.10;;
65009;SDS011;51556;50.002;22.014;2023-11-21T07:23:46;4.30;;;2.60;;
65009;SDS011;51556;50.002;22.014;2023-11-21T07:26:11;4.40;;;2.10;;
65009;SDS011;51556;50.002;22.014;2023-11-21T07:28:37;3.70;;;2.70;;
65009;SDS011;51556;50.002;22.014;2023-11-21T07:31:03;4.80;;;2.50;;
65009;SDS011;51556;50.002;22.014;2023-11-21T07:33:28;4.40;;;2.20;;
65009;SDS011;51556;50.002;22.014;2023-11-21T07:35:54;2.20;;;1.80;;
65009;SDS011;51556;50.002;22.014;2023-11-21T07:38:19;4.50;;;2.60;;
65009;SDS011;51556;50.002;22.014;2023-11-21T07:40:44;3.10;;;2.10;;
65009;SDS011;51556;50.002;22.014;2023-11-21T07:43:10;4.30;;;2.30;;
65009;SDS011;51556;50.002;22.014;2023-11-21T07:45:35;5.30;;;2.30;;
65009;SDS011;51556;50.002;22.014;2023-11-21T07:48:01;3.80;;;2.30;;
65009;SDS011;51556;50.002;22.014;2023-11-21T07:50:28;4.20;;;2.50;;
65009;SDS011;51556;50.002;22.014;2023-11-21T07:52:54;3.60;;;2.70;;
65009;SDS011;51556;50.002;22.014;2023-11-21T07:55:19;4.00;;;2.20;;
65009;SDS011;51556;50.002;22.014;2023-11-21T07:57:45;6.60;;;2.40;;
65009;SDS011;51556;50.002;22.014;2023-11-21T08:00:11;4.20;;;2.50;;
65009;SDS011;51556;50.002;22.014;2023-11-21T08:02:37;9.80;;;5.30;;
65009;SDS011;51556;50.002;22.014;2023-11-21T08:05:11;6.10;;;3.40;;
65009;SDS011;51556;50.002;22.014;2023-11-21T08:07:37;5.20;;;2.90;;
65009;SDS011;51556;50.002;22.014;2023-11-21T08:10:03;5.00;;;3.00;;
65009;SDS011;51556;50.002;22.014;2023-11-21T08:12:30;4.70;;;3.00;;
65009;SDS011;51556;50.002;22.014;2023-11-21T08:14:56;3.80;;;2.60;;
65009;SDS011;51556;50.002;22.014;2023-11-21T08:17:21;4.80;;;2.40;;
65009;SDS011;51556;50.002;22.014;2023-11-21T08:19:47;4.10;;;2.90;;
65009;SDS011;51556;50.002;22.014;2023-11-21T08:22:15;5.30;;;3.20;;
65009;SDS011;51556;50.002;22.014;2023-11-21T08:24:43;3.70;;;2.90;;
65009;SDS011;51556;50.002;22.014;2023-11-21T08:27:09;4.80;;;3.40;;
65009;SDS011;51556;50.002;22.014;2023-11-21T08:29:34;5.30;;;3.60;;
65009;SDS011;51556;50.002;22.014;2023-11-21T08:32:01;5.20;;;3.80;;
65009;SDS011;51556;50.002;22.014;2023-11-21T08:34:27;7.00;;;3.20;;
65009;SDS011;51556;50.002;22.014;2023-11-21T08:36:53;4.70;;;3.10;;
65009;SDS011;51556;50.002;22.014;2023-11-21T08:39:19;6.20;;;3.30;;
65009;SDS011;51556;50.002;22.014;2023-11-21T08:41:44;5.50;;;3.30;;
65009;SDS011;51556;50.002;22.014;2023-11-21T08:44:10;4.40;;;2.80;;
65009;SDS011;51556;50.002;22.014;2023-11-21T08:46:36;5.00;;;3.10;;
65009;SDS011;51556;50.002;22.014;2023-11-21T08:49:03;4.30;;;3.20;;
65009;SDS011;51556;50.002;22.014;2023-11-21T08:51:29;5.50;;;3.00;;
65009;SDS011;51556;50.002;22.014;2023-11-21T08:53:54;4.00;;;2.70;;
65009;SDS011;51556;50.002;22.014;2023-11-21T08:56:24;3.70;;;3.20;;
65009;SDS011;51556;50.002;22.014;2023-11-21T08:58:50;4.60;;;3.20;;
65009;SDS011;51556;50.002;22.014;2023-11-21T09:01:15;5.60;;;3.80;;
65009;SDS011;51556;50.002;22.014;2023-11-21T09:03:41;5.70;;;3.30;;
65009;SDS011;51556;50.002;22.014;2023-11-21T09:06:06;5.90;;;3.60;;
65009;SDS011;51556;50.002;22.014;2023-11-21T09:08:34;5.10;;;3.60;;
65009;SDS011;51556;50.002;22.014;2023-11-21T09:11:00;5.20;;;3.60;;
65009;SDS011;51556;50.002;22.014;2023-11-21T09:13:25;4.60;;;3.30;;
65009;SDS011;51556;50.002;22.014;2023-11-21T09:15:51;8.20;;;3.60;;
65009;SDS011;51556;50.002;22.014;2023-11-21T09:18:16;4.40;;;2.90;;
65009;SDS011;51556;50.002;22.014;2023-11-21T09:20:42;4.40;;;2.90;;
65009;SDS011;51556;50.002;22.014;2023-11-21T09:23:10;5.40;;;3.10;;
65009;SDS011;51556;50.002;22.014;2023-11-21T09:25:36;4.10;;;2.70;;
65009;SDS011;51556;50.002;22.014;2023-11-21T09:28:03;4.10;;;2.90;;
65009;SDS011;51556;50.002;22.014;2023-11-21T09:30:33;5.30;;;3.40;;
65009;SDS011;51556;50.002;22.014;2023-11-21T09:33:00;4.20;;;3.00;;
65009;SDS011;51556;50.002;22.014;2023-11-21T09:35:25;6.50;;;3.00;;
65009;SDS011;51556;50.002;22.014;2023-11-21T09:37:55;4.50;;;3.30;;
65009;SDS011;51556;50.002;22.014;2023-11-21T09:40:21;4.70;;;3.00;;
65009;SDS011;51556;50.002;22.014;2023-11-21T09:42:49;6.40;;;4.20;;
65009;SDS011;51556;50.002;22.014;2023-11-21T09:45:25;5.70;;;3.50;;
65009;SDS011;51556;50.002;22.014;2023-11-21T09:47:53;6.50;;;4.10;;
65009;SDS011;51556;50.002;22.014;2023-11-21T09:50:20;5.70;;;4.20;;
65009;SDS011;51556;50.002;22.014;2023-11-21T09:53:11;5.80;;;4.00;;
65009;SDS011;51556;50.002;22.014;2023-11-21T09:55:43;7.80;;;4.70;;
65009;SDS011;51556;50.002;22.014;2023-11-21T09:58:11;7.00;;;4.00;;
65009;SDS011;51556;50.002;22.014;2023-11-21T10:00:43;8.60;;;4.40;;
65009;SDS011;51556;50.002;22.014;2023-11-21T10:03:10;9.90;;;4.40;;
65009;SDS011;51556;50.002;22.014;2023-11-21T10:05:37;6.50;;;4.00;;
65009;SDS011;51556;50.002;22.014;2023-11-21T10:08:10;5.00;;;3.60;;
65009;SDS011;51556;50.002;22.014;2023-11-21T10:10:36;4.40;;;3.10;;
65009;SDS011;51556;50.002;22.014;2023-11-21T10:13:04;6.60;;;4.30;;
65009;SDS011;51556;50.002;22.014;2023-11-21T10:15:35;8.20;;;4.10;;
65009;SDS011;51556;50.002;22.014;2023-11-21T10:18:02;6.60;;;3.30;;
65009;SDS011;51556;50.002;22.014;2023-11-21T10:20:29;5.70;;;3.50;;
65009;SDS011;51556;50.002;22.014;2023-11-21T10:23:04;6.00;;;4.10;;
65009;SDS011;51556;50.002;22.014;2023-11-21T10:25:32;7.80;;;4.70;;
65009;SDS011;51556;50.002;22.014;2023-11-21T10:27:59;6.20;;;3.80;;
65009;SDS011;51556;50.002;22.014;2023-11-21T10:30:33;7.60;;;4.30;;
65009;SDS011;51556;50.002;22.014;2023-11-21T10:33:06;5.00;;;3.40;;
65009;SDS011;51556;50.002;22.014;2023-11-21T10:35:42;3.50;;;2.30;;
65009;SDS011;51556;50.002;22.014;2023-11-21T10:38:27;2.30;;;1.90;;
65009;SDS011;51556;50.002;22.014;2023-11-21T10:40:55;4.50;;;2.00;;
65009;SDS011;51556;50.002;22.014;2023-11-21T10:43:22;3.80;;;1.80;;
65009;SDS011;51556;50.002;22.014;2023-11-21T10:45:50;2.40;;;1.20;;
65009;SDS011;51556;50.002;22.014;2023-11-21T10:48:15;1.90;;;1.40;;
65009;SDS011;51556;50.002;22.014;2023-11-21T10:50:42;2.00;;;1.50;;
65009;SDS011;51556;50.002;22.014;2023-11-21T10:53:09;1.90;;;1.40;;
65009;SDS011;51556;50.002;22.014;2023-11-21T10:55:38;2.30;;;1.90;;
65009;SDS011;51556;50.002;22.014;2023-11-21T10:58:04;2.80;;;1.90;;
65009;SDS011;51556;50.002;22.014;2023-11-21T11:00:31;2.00;;;1.80;;
65009;SDS011;51556;50.002;22.014;2023-11-21T11:02:58;4.80;;;3.40;;
65009;SDS011;51556;50.002;22.014;2023-11-21T11:05:26;3.40;;;2.20;;
65009;SDS011;51556;50.002;22.014;2023-11-21T11:10:33;2.00;;;1.70;;
65009;SDS011;51556;50.002;22.014;2023-11-21T11:12:59;2.60;;;1.80;;
65009;SDS011;51556;50.002;22.014;2023-11-21T11:15:25;4.10;;;2.10;;
65009;SDS011;51556;50.002;22.014;2023-11-21T11:17:52;2.20;;;1.50;;
65009;SDS011;51556;50.002;22.014;2023-11-21T11:20:31;3.20;;;2.30;;
65009;SDS011;51556;50.002;22.014;2023-11-21T11:23:11;3.20;;;2.10;;
65009;SDS011;51556;50.002;22.014;2023-11-21T11:37:08;3.60;;;2.60;;
65009;SDS011;51556;50.002;22.014;2023-11-21T11:39:41;4.00;;;2.30;;
65009;SDS011;51556;50.002;22.014;2023-11-21T11:42:14;3.20;;;2.40;;
65009;SDS011;51556;50.002;22.014;2023-11-21T11:47:29;6.70;;;2.80;;
65009;SDS011;51556;50.002;22.014;2023-11-21T11:52:51;2.50;;;2.00;;
65009;SDS011;51556;50.002;22.014;2023-11-21T11:55:23;3.50;;;1.90;;
65009;SDS011;51556;50.002;22.014;2023-11-21T11:57:51;3.50;;;2.60;;
65009;SDS011;51556;50.002;22.014;2023-11-21T12:00:21;2.50;;;2.00;;
65009;SDS011;51556;50.002;22.014;2023-11-21T12:02:52;3.70;;;2.20;;
65009;SDS011;51556;50.002;22.014;2023-11-21T12:05:23;3.80;;;1.90;;
65009;SDS011;51556;50.002;22.014;2023-11-21T12:07:52;3.20;;;2.30;;
65009;SDS011;51556;50.002;22.014;2023-11-21T12:10:20;3.20;;;2.50;;
65009;SDS011;51556;50.002;22.014;2023-11-21T12:12:51;3.30;;;2.50;;
65009;SDS011;51556;50.002;22.014;2023-11-21T12:15:18;3.60;;;2.80;;
65009;SDS011;51556;50.002;22.014;2023-11-21T12:17:44;3.20;;;2.50;;
65009;SDS011;51556;50.002;22.014;2023-11-21T12:20:13;3.80;;;3.00;;
65009;SDS011;51556;50.002;22.014;2023-11-21T12:22:41;4.20;;;3.00;;
65009;SDS011;51556;50.002;22.014;2023-11-21T12:25:13;4.30;;;3.30;;
65009;SDS011;51556;50.002;22.014;2023-11-21T12:27:44;4.20;;;3.30;;
65009;SDS011;51556;50.002;22.014;2023-11-21T12:30:15;4.80;;;3.30;;
65009;SDS011;51556;50.002;22.014;2023-11-21T12:32:48;4.30;;;3.10;;
65009;SDS011;51556;50.002;22.014;2023-11-21T12:35:17;5.80;;;3.70;;
65009;SDS011;51556;50.002;22.014;2023-11-21T12:37:46;6.00;;;3.70;;
65009;SDS011;51556;50.002;22.014;2023-11-21T12:40:13;5.80;;;3.80;;
65009;SDS011;51556;50.002;22.014;2023-11-21T12:42:43;5.00;;;3.40;;
65009;SDS011;51556;50.002;22.014;2023-11-21T12:47:49;6.80;;;4.80;;
65009;SDS011;51556;50.002;22.014;2023-11-21T12:50:19;7.90;;;4.10;;
65009;SDS011;51556;50.002;22.014;2023-11-21T12:52:48;6.90;;;4.30;;
65009;SDS011;51556;50.002;22.014;2023-11-21T12:55:15;7.50;;;5.30;;
65009;SDS011;51556;50.002;22.014;2023-11-21T12:57:42;5.90;;;4.10;;
65009;SDS011;51556;50.002;22.014;2023-11-21T13:00:15;8.90;;;5.90;;
65009;SDS011;51556;50.002;22.014;2023-11-21T13:02:52;5.60;;;4.60;;
65009;SDS011;51556;50.002;22.014;2023-11-21T13:05:27;7.00;;;4.30;;
65009;SDS011;51556;50.002;22.014;2023-11-21T13:08:01;6.60;;;4.60;;
65009;SDS011;51556;50.002;22.014;2023-11-21T13:10:31;16.20;;;10.00;;
65009;SDS011;51556;50.002;22.014;2023-11-21T13:13:05;10.90;;;7.80;;
65009;SDS011;51556;50.002;22.014;2023-11-21T13:15:46;10.80;;;7.40;;
65009;SDS011;51556;50.002;22.014;2023-11-21T13:18:33;14.10;;;10.20;;
65009;SDS011;51556;50.002;22.014;2023-11-21T13:31:13;18.00;;;10.80;;
65009;SDS011;51556;50.002;22.014;2023-11-21T13:34:10;16.80;;;9.20;;
65009;SDS011;51556;50.002;22.014;2023-11-21T13:36:58;18.00;;;10.20;;
65009;SDS011;51556;50.002;22.014;2023-11-21T13:39:40;17.30;;;9.80;;
65009;SDS011;51556;50.002;22.014;2023-11-21T13:42:25;18.00;;;9.90;;
65009;SDS011;51556;50.002;22.014;2023-11-21T13:47:28;16.10;;;8.80;;
65009;SDS011;51556;50.002;22.014;2023-11-21T13:50:11;14.60;;;8.90;;
65009;SDS011;51556;50.002;22.014;2023-11-21T13:53:07;16.20;;;9.60;;
65009;SDS011;51556;50.002;22.014;2023-11-21T13:55:48;17.40;;;9.00;;
65009;SDS011;51556;50.002;22.014;2023-11-21T13:58:22;19.10;;;10.20;;
65009;SDS011;51556;50.002;22.014;2023-11-21T14:01:08;18.10;;;9.90;;
65009;SDS011;51556;50.002;22.014;2023-11-21T14:04:16;17.80;;;9.20;;
65009;SDS011;51556;50.002;22.014;2023-11-21T14:06:50;18.10;;;8.40;;
65009;SDS011;51556;50.002;22.014;2023-11-21T14:09:20;17.20;;;9.00;;
65009;SDS011;51556;50.002;22.014;2023-11-21T14:11:58;18.60;;;9.30;;
65009;SDS011;51556;50.002;22.014;2023-11-21T14:14:39;17.50;;;9.30;;
65009;SDS011;51556;50.002;22.014;2023-11-21T14:17:33;18.80;;;10.40;;
65009;SDS011;51556;50.002;22.014;2023-11-21T14:20:07;21.30;;;10.60;;
65009;SDS011;51556;50.002;22.014;2023-11-21T14:22:57;20.70;;;10.50;;
65009;SDS011;51556;50.002;22.014;2023-11-21T14:25:31;20.80;;;11.50;;
65009;SDS011;51556;50.002;22.014;2023-11-21T14:28:18;21.30;;;11.30;;
65009;SDS011;51556;50.002;22.014;2023-11-21T14:33:12;23.90;;;12.90;;
65009;SDS011;51556;50.002;22.014;2023-11-21T14:35:38;19.90;;;11.70;;
65009;SDS011;51556;50.002;22.014;2023-11-21T14:38:03;27.70;;;13.00;;
65009;SDS011;51556;50.002;22.014;2023-11-21T14:40:33;20.70;;;11.40;;
65009;SDS011;51556;50.002;22.014;2023-11-21T14:45:30;27.80;;;15.20;;
65009;SDS011;51556;50.002;22.014;2023-11-21T14:47:56;24.90;;;13.60;;
65009;SDS011;51556;50.002;22.014;2023-11-21T14:50:41;40.50;;;19.40;;
65009;SDS011;51556;50.002;22.014;2023-11-21T14:53:08;37.60;;;18.40;;
65009;SDS011;51556;50.002;22.014;2023-11-21T14:55:34;37.30;;;18.90;;
65009;SDS011;51556;50.002;22.014;2023-11-21T14:58:16;25.10;;;12.70;;
65009;SDS011;51556;50.002;22.014;2023-11-21T15:00:52;22.00;;;11.40;;
65009;SDS011;51556;50.002;22.014;2023-11-21T15:03:23;19.30;;;10.40;;
65009;SDS011;51556;50.002;22.014;2023-11-21T15:05:55;38.20;;;18.00;;
65009;SDS011;51556;50.002;22.014;2023-11-21T15:08:22;25.80;;;13.70;;
65009;SDS011;51556;50.002;22.014;2023-11-21T15:10:55;31.20;;;14.60;;
65009;SDS011;51556;50.002;22.014;2023-11-21T15:13:21;23.10;;;12.20;;
65009;SDS011;51556;50.002;22.014;2023-11-21T15:15:48;26.80;;;13.60;;
65009;SDS011;51556;50.002;22.014;2023-11-21T15:18:14;30.20;;;14.60;;